Time;durP1;ratioP1;P1;durP2;ratioP2;P2;SDS_P1;SDS_P2;PMS_P1;PMS_P2;Temp;Humidity;BMP_temperature;BMP_pressure;BME280_temperature;BME280_humidity;BME280_pressure;Samples;Min_cycle;Max_cycle;Signal;HPM_P1;HPM_P2
2022/04/14 00:01:41;;;;;;;5.15;2.33;;;6.00;99.90;;;;;;4979809;28;20130;-63
2022/04/14 00:04:08;;;;;;;6.45;2.50;;;6.10;99.90;;;;;;4978904;28;20108;-63
2022/04/14 00:06:35;;;;;;;4.95;2.17;;;6.10;99.90;;;;;;4979642;28;20133;-62
2022/04/14 00:09:02;;;;;;;6.05;2.58;;;6.10;99.90;;;;;;4980442;28;20819;-63
2022/04/14 00:11:29;;;;;;;5.78;3.03;;;6.10;99.90;;;;;;4987281;28;20141;-63
2022/04/14 00:13:56;;;;;;;5.13;2.75;;;6.00;99.90;;;;;;4974536;28;20108;-63
2022/04/14 00:16:24;;;;;;;5.18;2.25;;;6.00;99.90;;;;;;4974913;28;20432;-63
2022/04/14 00:18:51;;;;;;;10.70;3.90;;;5.90;99.90;;;;;;4978839;28;20057;-65
2022/04/14 00:21:18;;;;;;;8.27;3.00;;;5.90;99.90;;;;;;4976044;28;20054;-64
2022/04/14 00:23:45;;;;;;;6.85;3.65;;;5.90;99.90;;;;;;4977966;28;20047;-63
2022/04/14 00:26:12;;;;;;;4.03;2.92;;;5.80;99.90;;;;;;4978632;28;20641;-64
2022/04/14 00:28:39;;;;;;;8.90;3.50;;;5.70;99.90;;;;;;4978379;28;20461;-65
2022/04/14 00:31:06;;;;;;;3.25;2.78;;;5.70;99.90;;;;;;4976085;28;20038;-64
2022/04/14 00:33:33;;;;;;;6.55;3.90;;;5.60;99.90;;;;;;4979930;28;20070;-63
2022/04/14 00:36:00;;;;;;;6.88;3.63;;;5.60;99.90;;;;;;4981165;28;20433;-63
2022/04/14 00:38:27;;;;;;;5.80;3.33;;;5.60;99.90;;;;;;5009116;28;20068;-64
2022/04/14 00:40:55;;;;;;;8.45;3.45;;;5.50;99.90;;;;;;4981666;28;20121;-64
2022/04/14 00:43:33;;;;;;;4.63;3.25;;;5.50;99.90;;;;;;4986292;28;20120;-63
2022/04/14 00:46:01;;;;;;;5.20;3.47;;;5.50;99.90;;;;;;4978285;28;20665;-64
2022/04/14 00:48:30;;;;;;;9.90;3.53;;;5.50;99.90;;;;;;4977771;28;20074;-63
2022/04/14 00:50:57;;;;;;;5.38;3.33;;;5.50;99.90;;;;;;4976138;28;20683;-66
2022/04/14 00:53:24;;;;;;;5.85;3.35;;;5.50;99.90;;;;;;4980912;28;20049;-62
2022/04/14 00:55:51;;;;;;;6.57;3.25;;;5.40;99.90;;;;;;4968907;28;20134;-63
2022/04/14 00:58:19;;;;;;;7.50;3.47;;;5.50;99.90;;;;;;4982621;28;20085;-66
2022/04/14 01:00:46;;;;;;;5.72;3.75;;;5.40;99.90;;;;;;4976842;28;20054;-63
2022/04/14 01:03:15;;;;;;;5.88;4.55;;;5.40;99.90;;;;;;4981744;28;20049;-62
2022/04/14 01:05:43;;;;;;;9.82;4.40;;;5.40;99.90;;;;;;4976192;28;20133;-66
2022/04/14 01:08:10;;;;;;;7.18;4.55;;;5.30;99.90;;;;;;4981856;28;20937;-63
2022/04/14 01:10:38;;;;;;;3.40;3.10;;;5.30;99.90;;;;;;4981551;28;20050;-63
2022/04/14 01:13:05;;;;;;;7.97;5.03;;;5.30;99.90;;;;;;4968309;28;20134;-65
2022/04/14 01:15:32;;;;;;;7.57;3.80;;;5.30;99.90;;;;;;4984611;28;20070;-62
2022/04/14 01:17:59;;;;;;;9.43;3.85;;;5.30;99.90;;;;;;4980182;28;20098;-63
2022/04/14 01:20:26;;;;;;;5.57;3.63;;;5.30;99.90;;;;;;4974586;28;20073;-63
2022/04/14 01:22:59;;;;;;;5.75;3.08;;;5.30;99.90;;;;;;4975321;28;20161;-62
2022/04/14 01:25:27;;;;;;;10.52;3.60;;;5.30;99.90;;;;;;4972145;28;20046;-63
2022/04/14 01:27:54;;;;;;;5.88;3.35;;;5.30;99.90;;;;;;4982207;28;20659;-64
2022/04/14 01:30:21;;;;;;;6.03;4.22;;;5.30;99.90;;;;;;4982248;28;20144;-64
2022/04/14 01:32:48;;;;;;;7.72;4.07;;;5.30;99.90;;;;;;4973415;28;20078;-63
2022/04/14 01:35:16;;;;;;;6.72;4.03;;;5.30;99.90;;;;;;4969015;28;20142;-62
2022/04/14 01:37:43;;;;;;;11.35;4.32;;;5.30;99.90;;;;;;4972905;28;20134;-63
2022/04/14 01:40:10;;;;;;;5.45;3.95;;;5.30;99.90;;;;;;4975556;28;20053;-64
2022/04/14 01:42:38;;;;;;;5.82;4.03;;;5.30;99.90;;;;;;4978686;28;20372;-63
2022/04/14 01:45:07;;;;;;;9.13;4.78;;;5.30;99.90;;;;;;4981105;28;20134;-63
2022/04/14 01:47:45;;;;;;;6.90;3.65;;;5.30;99.90;;;;;;4974489;28;20054;-63
2022/04/14 01:50:13;;;;;;;5.30;3.65;;;5.30;99.90;;;;;;4969341;28;20070;-65
2022/04/14 01:52:44;;;;;;;10.93;4.90;;;5.30;99.90;;;;;;4974734;28;20082;-64
2022/04/14 01:55:12;;;;;;;5.68;5.00;;;5.30;99.90;;;;;;4976202;28;20047;-64
2022/04/14 01:57:39;;;;;;;10.50;5.45;;;5.40;99.90;;;;;;4975758;28;20143;-63
2022/04/14 02:00:07;;;;;;;8.98;4.78;;;5.40;99.90;;;;;;4972865;28;20046;-63
2022/04/14 02:02:34;;;;;;;9.77;5.25;;;5.40;99.90;;;;;;4975471;28;20227;-63
2022/04/14 02:05:02;;;;;;;10.18;4.50;;;5.40;99.90;;;;;;4977791;28;20452;-65
2022/04/14 02:07:29;;;;;;;6.88;4.38;;;5.40;99.90;;;;;;4983810;28;20046;-63
2022/04/14 02:09:56;;;;;;;5.97;5.10;;;5.40;99.90;;;;;;4972749;28;20476;-62
2022/04/14 02:12:26;;;;;;;6.22;4.32;;;5.30;99.90;;;;;;4970850;28;20070;-62
2022/04/14 02:14:53;;;;;;;5.75;5.13;;;5.30;99.90;;;;;;4978614;28;20054;-62
2022/04/14 02:17:20;;;;;;;6.78;4.30;;;5.30;99.90;;;;;;4974131;28;20125;-62
2022/04/14 02:19:47;;;;;;;7.72;4.85;;;5.20;99.90;;;;;;4975244;28;20058;-62
2022/04/14 02:22:15;;;;;;;11.55;4.95;;;5.20;99.90;;;;;;4974049;28;20043;-62
2022/04/14 02:24:42;;;;;;;9.23;4.65;;;5.20;99.90;;;;;;4977616;28;20055;-65
2022/04/14 02:27:09;;;;;;;7.07;4.78;;;5.10;99.90;;;;;;4983954;28;20140;-63
2022/04/14 02:29:36;;;;;;;9.38;5.22;;;5.10;99.90;;;;;;4978618;28;20465;-66
2022/04/14 02:32:03;;;;;;;7.13;5.43;;;5.00;99.90;;;;;;4976625;28;20050;-63
2022/04/14 02:34:30;;;;;;;5.05;4.55;;;5.00;99.90;;;;;;4982955;28;20047;-62
2022/04/14 02:36:57;;;;;;;6.50;4.85;;;5.00;99.90;;;;;;4966732;28;20220;-64
2022/04/14 02:39:24;;;;;;;7.75;5.45;;;5.10;99.90;;;;;;4969445;28;20054;-63
2022/04/14 02:41:51;;;;;;;6.82;5.80;;;5.00;99.90;;;;;;4966642;28;20138;-64
2022/04/14 02:44:18;;;;;;;6.25;4.88;;;5.00;99.90;;;;;;4977218;28;20046;-63
2022/04/14 02:46:45;;;;;;;7.57;4.20;;;5.00;99.90;;;;;;4964782;28;20081;-62
2022/04/14 02:49:12;;;;;;;8.82;4.63;;;5.00;99.90;;;;;;4972518;28;20057;-62
2022/04/14 02:51:39;;;;;;;5.78;5.15;;;5.00;99.90;;;;;;4981887;28;20065;-63
2022/04/14 02:54:06;;;;;;;7.50;4.85;;;5.00;99.90;;;;;;4975224;28;20078;-63
2022/04/14 02:56:33;;;;;;;5.93;4.13;;;5.00;99.90;;;;;;4970020;28;20141;-63
2022/04/14 02:59:00;;;;;;;7.80;4.90;;;5.00;99.90;;;;;;4976980;28;20110;-63
2022/04/14 03:01:27;;;;;;;7.45;4.60;;;4.90;99.90;;;;;;4978099;28;20133;-62
2022/04/14 03:03:54;;;;;;;9.70;5.05;;;4.90;99.90;;;;;;4985350;28;20053;-64
2022/04/14 03:06:20;;;;;;;8.52;4.85;;;4.90;99.90;;;;;;4979637;28;20129;-65
2022/04/14 03:08:47;;;;;;;7.55;4.65;;;4.90;99.90;;;;;;4979169;28;20046;-63
2022/04/14 03:11:14;;;;;;;14.18;4.35;;;4.90;99.90;;;;;;4972469;28;20149;-65
2022/04/14 03:13:44;;;;;;;7.65;5.05;;;4.90;99.90;;;;;;4970547;28;20142;-63
2022/04/14 03:16:11;;;;;;;8.33;5.23;;;4.90;99.90;;;;;;4979696;28;20476;-64
2022/04/14 03:18:38;;;;;;;6.60;4.32;;;4.90;99.90;;;;;;4980655;28;20805;-63
2022/04/14 03:21:05;;;;;;;7.53;4.60;;;4.90;99.90;;;;;;4973708;28;20129;-64
2022/04/14 03:23:32;;;;;;;10.80;4.93;;;4.90;99.90;;;;;;4977672;28;21394;-63
2022/04/14 03:25:59;;;;;;;7.78;5.13;;;4.90;99.90;;;;;;4981910;28;20111;-65
2022/04/14 03:28:26;;;;;;;7.32;5.07;;;4.90;99.90;;;;;;4976010;28;20465;-63
2022/04/14 03:30:57;;;;;;;8.15;5.25;;;4.90;99.90;;;;;;4974238;28;21475;-63
2022/04/14 03:33:24;;;;;;;6.18;4.72;;;4.90;99.90;;;;;;4982017;28;20034;-63
2022/04/14 03:35:51;;;;;;;6.28;4.88;;;4.90;99.90;;;;;;4972494;28;20054;-63
2022/04/14 03:38:18;;;;;;;5.60;5.05;;;4.90;99.90;;;;;;4969003;28;20072;-62
2022/04/14 03:41:06;;;;;;;12.20;5.50;;;4.90;99.90;;;;;;4973415;28;20904;-63
2022/04/14 03:43:36;;;;;;;16.98;6.68;;;4.90;99.90;;;;;;4973401;28;20037;-62
2022/04/14 03:46:04;;;;;;;;;;;4.90;99.90;;;;;;4975426;28;20522;-63
2022/04/14 03:48:31;;;;;;;12.15;6.32;;;4.90;99.90;;;;;;4974003;28;19936;-62
2022/04/14 03:50:58;;;;;;;7.75;6.03;;;4.90;99.90;;;;;;4975385;28;20058;-63
2022/04/14 03:53:25;;;;;;;8.68;5.57;;;4.80;99.90;;;;;;4982264;28;20042;-63
2022/04/14 03:55:52;;;;;;;9.13;6.43;;;4.80;99.90;;;;;;4981033;28;20137;-68
2022/04/14 03:58:19;;;;;;;10.23;4.97;;;4.80;99.90;;;;;;4975471;28;20155;-65
2022/04/14 04:00:46;;;;;;;10.30;6.13;;;4.80;99.90;;;;;;4976433;28;20078;-63
2022/04/14 04:03:13;;;;;;;8.55;6.22;;;4.80;99.90;;;;;;4975442;28;20448;-62
2022/04/14 04:05:41;;;;;;;11.40;6.07;;;4.90;99.90;;;;;;4972051;28;20054;-67
2022/04/14 04:08:08;;;;;;;8.70;7.85;;;4.90;99.90;;;;;;4975639;28;20429;-64
2022/04/14 04:10:35;;;;;;;8.93;6.40;;;4.90;99.90;;;;;;4970575;28;20114;-63
2022/04/14 04:13:02;;;;;;;10.93;6.95;;;4.90;99.90;;;;;;4972931;28;20049;-63
2022/04/14 04:15:30;;;;;;;9.02;5.93;;;4.90;99.90;;;;;;4967789;28;20058;-64
2022/04/14 04:17:57;;;;;;;8.50;5.28;;;4.90;99.90;;;;;;4973642;28;20046;-62
2022/04/14 04:20:25;;;;;;;7.75;5.85;;;4.90;99.90;;;;;;4973431;28;20138;-63
2022/04/14 04:22:52;;;;;;;11.55;7.35;;;5.00;99.90;;;;;;4970320;28;20121;-62
2022/04/14 04:25:19;;;;;;;13.32;6.20;;;5.00;99.90;;;;;;4976740;28;20124;-63
2022/04/14 04:27:46;;;;;;;11.90;6.35;;;4.90;99.90;;;;;;4973779;28;20130;-61
2022/04/14 04:30:13;;;;;;;9.13;7.60;;;5.00;99.90;;;;;;4970193;28;20173;-62
2022/04/14 04:32:41;;;;;;;9.32;7.55;;;5.00;99.90;;;;;;4978338;28;20133;-64
2022/04/14 04:35:09;;;;;;;10.68;6.20;;;5.00;99.90;;;;;;4969478;28;20105;-64
2022/04/14 04:37:36;;;;;;;11.50;7.03;;;5.00;99.90;;;;;;4978340;28;20129;-62
2022/04/14 04:40:04;;;;;;;10.27;6.20;;;5.00;99.90;;;;;;4970369;28;20085;-63
2022/04/14 04:42:31;;;;;;;9.75;6.30;;;5.00;99.90;;;;;;4974570;28;20055;-62
2022/04/14 04:44:58;;;;;;;9.20;6.97;;;5.00;99.90;;;;;;4982879;28;20122;-63
2022/04/14 04:47:25;;;;;;;10.75;7.10;;;5.00;99.90;;;;;;4983610;28;20230;-62
2022/04/14 04:49:57;;;;;;;16.23;7.93;;;5.00;99.90;;;;;;4986257;28;20848;-62
2022/04/14 04:52:24;;;;;;;11.23;7.10;;;5.00;99.90;;;;;;4977506;28;20064;-64
2022/04/14 04:54:51;;;;;;;15.07;8.93;;;5.00;99.90;;;;;;4972398;28;20059;-65
2022/04/14 04:57:18;;;;;;;11.95;8.85;;;5.00;99.90;;;;;;4972615;28;20050;-62
2022/04/14 04:59:45;;;;;;;18.42;10.18;;;5.00;99.90;;;;;;4983100;28;20094;-62
2022/04/14 05:02:12;;;;;;;16.90;9.68;;;5.10;99.90;;;;;;4988255;28;20189;-65
2022/04/14 05:04:39;;;;;;;15.70;10.48;;;5.00;99.90;;;;;;4983935;28;20146;-63
2022/04/14 05:07:06;;;;;;;14.00;8.70;;;5.00;99.90;;;;;;4983977;28;20041;-63
2022/04/14 05:09:34;;;;;;;18.23;10.27;;;5.00;99.90;;;;;;4979743;28;20141;-65
2022/04/14 05:12:00;;;;;;;14.82;11.30;;;5.00;99.90;;;;;;4980343;28;20062;-65
2022/04/14 05:14:27;;;;;;;18.55;11.00;;;5.10;99.90;;;;;;4983050;28;20137;-63
2022/04/14 05:16:54;;;;;;;14.88;10.77;;;5.10;99.90;;;;;;4982800;28;20109;-65
2022/04/14 05:19:21;;;;;;;23.83;13.05;;;5.10;99.90;;;;;;4978303;28;20122;-64
2022/04/14 05:21:48;;;;;;;15.40;11.05;;;5.10;99.90;;;;;;4980445;28;20418;-62
2022/04/14 05:24:15;;;;;;;12.68;10.38;;;5.10;99.90;;;;;;4966763;28;20043;-66
2022/04/14 05:26:42;;;;;;;14.27;11.32;;;5.20;99.90;;;;;;4977753;28;20073;-64
2022/04/14 05:29:09;;;;;;;19.95;13.43;;;5.20;99.90;;;;;;4978036;28;20046;-64
2022/04/14 05:31:36;;;;;;;18.42;12.85;;;5.20;99.90;;;;;;4982453;28;20046;-65
2022/04/14 05:34:03;;;;;;;19.83;12.93;;;5.20;99.90;;;;;;4976599;28;20042;-65
2022/04/14 05:36:30;;;;;;;15.90;11.93;;;5.20;99.90;;;;;;4978765;28;20145;-63
2022/04/14 05:38:57;;;;;;;19.70;12.30;;;5.20;99.90;;;;;;4980912;28;20171;-65
2022/04/14 05:41:24;;;;;;;14.75;11.93;;;5.20;99.90;;;;;;4977908;28;20042;-63
2022/04/14 05:43:51;;;;;;;19.40;13.30;;;5.30;99.90;;;;;;4979129;28;20054;-63
2022/04/14 05:46:18;;;;;;;18.75;13.35;;;5.30;99.90;;;;;;4982526;28;20788;-63
2022/04/14 05:48:45;;;;;;;25.65;16.10;;;5.30;99.90;;;;;;4969360;28;20049;-63
2022/04/14 05:51:12;;;;;;;16.65;13.85;;;5.40;99.90;;;;;;4967649;28;20066;-62
2022/04/14 05:53:39;;;;;;;19.40;14.85;;;5.40;99.90;;;;;;4975214;28;20047;-65
2022/04/14 05:56:06;;;;;;;19.25;15.55;;;5.50;99.90;;;;;;4978954;28;20074;-63
2022/04/14 05:58:32;;;;;;;22.33;16.27;;;5.50;99.90;;;;;;5007078;28;20146;-64
2022/04/14 06:00:59;;;;;;;18.50;16.15;;;5.50;99.90;;;;;;4973792;28;20046;-63
2022/04/14 06:03:26;;;;;;;21.42;16.63;;;5.60;99.90;;;;;;4972006;28;20050;-62
2022/04/14 06:05:53;;;;;;;26.42;16.27;;;5.60;99.90;;;;;;4977788;28;20233;-62
2022/04/14 06:08:20;;;;;;;27.13;19.52;;;5.60;99.90;;;;;;4976755;28;20254;-63
2022/04/14 06:10:47;;;;;;;24.58;18.25;;;5.60;99.90;;;;;;4974039;28;20050;-63
2022/04/14 06:13:14;;;;;;;22.98;19.00;;;5.70;99.90;;;;;;4985573;28;20035;-62
2022/04/14 06:15:41;;;;;;;24.23;17.75;;;5.70;99.90;;;;;;4978335;28;20055;-65
2022/04/14 06:18:08;;;;;;;29.80;19.83;;;5.70;99.90;;;;;;4971070;28;20142;-63
2022/04/14 06:20:35;;;;;;;23.90;17.90;;;5.70;99.90;;;;;;4980889;28;20078;-65
2022/04/14 06:23:02;;;;;;;31.50;20.08;;;5.80;99.90;;;;;;4979123;28;20133;-63
2022/04/14 06:25:30;;;;;;;24.92;18.75;;;5.90;99.90;;;;;;4992440;28;20100;-63
2022/04/14 06:27:57;;;;;;;22.35;17.55;;;5.90;99.90;;;;;;4980220;28;20057;-63
2022/04/14 06:30:24;;;;;;;23.33;17.25;;;6.00;99.90;;;;;;4975414;28;20074;-65
2022/04/14 06:33:02;;;;;;;26.77;20.20;;;6.00;99.90;;;;;;4973575;28;20062;-63
2022/04/14 06:35:30;;;;;;;24.73;18.50;;;6.00;99.90;;;;;;4973781;28;20493;-67
2022/04/14 06:37:58;;;;;;;27.70;20.70;;;6.10;99.90;;;;;;4977124;28;20061;-63
2022/04/14 06:40:25;;;;;;;30.00;20.35;;;6.10;99.90;;;;;;4977780;28;20500;-63
2022/04/14 06:42:59;;;;;;;30.52;23.52;;;6.20;99.90;;;;;;4973614;28;20067;-62
2022/04/14 06:45:27;;;;;;;32.42;24.88;;;6.20;99.90;;;;;;4971913;28;20055;-62
2022/04/14 06:47:55;;;;;;;32.55;24.58;;;6.20;99.90;;;;;;4972098;28;20039;-63
2022/04/14 06:50:22;;;;;;;31.13;24.00;;;6.30;99.90;;;;;;4975687;28;20062;-63
2022/04/14 06:52:49;;;;;;;35.88;28.95;;;6.20;99.90;;;;;;4974610;28;20266;-62
2022/04/14 06:55:16;;;;;;;38.00;26.85;;;6.20;99.90;;;;;;4977926;28;20375;-64
2022/04/14 06:57:43;;;;;;;40.30;28.40;;;6.20;99.90;;;;;;4986227;28;20047;-63
2022/04/14 07:00:11;;;;;;;39.25;27.63;;;6.10;99.90;;;;;;4987583;28;20052;-64
2022/04/14 07:02:51;;;;;;;35.42;27.13;;;6.10;99.90;;;;;;4978307;28;20043;-63
2022/04/14 07:05:18;;;;;;;35.60;27.73;;;6.00;99.90;;;;;;4977260;28;20130;-62
2022/04/14 07:07:45;;;;;;;39.22;26.65;;;6.00;99.90;;;;;;4980981;28;20599;-65
2022/04/14 07:10:13;;;;;;;34.40;25.25;;;6.00;99.90;;;;;;4983972;28;20050;-63
2022/04/14 07:12:41;;;;;;;38.85;25.95;;;6.10;99.90;;;;;;4984347;28;20115;-64
2022/04/14 07:15:10;;;;;;;35.63;24.48;;;6.10;99.90;;;;;;4977185;28;20054;-63
2022/04/14 07:17:37;;;;;;;36.80;25.45;;;6.10;99.90;;;;;;4968271;28;20066;-64
2022/04/14 07:20:06;;;;;;;32.88;24.02;;;6.00;99.90;;;;;;4966608;28;20102;-64
2022/04/14 07:22:49;;;;;;;35.42;26.08;;;6.00;99.90;;;;;;4974076;28;20078;-63
2022/04/14 07:25:23;;;;;;;34.13;25.02;;;6.00;99.90;;;;;;4971371;28;20716;-63
2022/04/14 07:27:52;;;;;;;35.30;24.25;;;5.90;99.90;;;;;;4972337;28;20471;-64
2022/04/14 07:30:20;;;;;;;40.92;25.48;;;5.90;99.90;;;;;;4974794;28;20409;-63
2022/04/14 07:32:47;;;;;;;43.72;25.70;;;5.90;99.90;;;;;;4978971;28;20452;-63
2022/04/14 07:35:14;;;;;;;42.40;26.83;;;6.00;99.90;;;;;;4974295;28;20038;-65
2022/04/14 07:37:41;;;;;;;41.25;26.55;;;6.00;99.90;;;;;;4972883;28;20161;-64
2022/04/14 07:40:08;;;;;;;46.72;26.95;;;6.00;99.90;;;;;;4974515;28;20090;-62
2022/04/14 07:42:37;;;;;;;39.03;24.73;;;6.10;99.90;;;;;;4980741;28;20863;-63
2022/04/14 07:45:05;;;;;;;40.95;24.45;;;6.20;99.90;;;;;;4975078;28;20153;-64
2022/04/14 07:47:41;;;;;;;32.53;24.33;;;6.30;99.90;;;;;;4971055;28;20126;-62
2022/04/14 07:50:14;;;;;;;33.65;22.52;;;6.30;99.90;;;;;;4978112;28;20132;-63
2022/04/14 07:52:59;;;;;;;25.95;19.50;;;6.30;99.90;;;;;;4978743;28;20082;-63
2022/04/14 07:55:29;;;;;;;26.48;19.48;;;6.20;99.90;;;;;;4977564;28;20096;-63
2022/04/14 07:58:00;;;;;;;29.23;20.37;;;6.30;99.90;;;;;;4980513;28;20043;-63
2022/04/14 08:00:27;;;;;;;25.80;17.67;;;6.40;99.90;;;;;;4973073;28;20178;-63
2022/04/14 08:02:59;;;;;;;27.65;19.33;;;6.50;99.90;;;;;;4974452;28;20129;-63
2022/04/14 08:05:41;;;;;;;28.27;18.42;;;6.50;99.90;;;;;;4977702;28;20046;-63
2022/04/14 08:08:11;;;;;;;30.52;18.38;;;6.50;99.90;;;;;;4975194;28;20042;-63
2022/04/14 08:10:44;;;;;;;29.47;20.30;;;6.50;99.90;;;;;;4971580;28;20137;-63
2022/04/14 08:13:11;;;;;;;27.38;17.73;;;6.60;99.90;;;;;;4978578;28;20284;-62
2022/04/14 08:15:39;;;;;;;24.63;16.45;;;6.60;99.90;;;;;;4972646;28;20502;-65
2022/04/14 08:18:07;;;;;;;22.13;16.48;;;6.70;99.90;;;;;;4973127;28;20109;-63
2022/04/14 08:20:35;;;;;;;25.48;15.32;;;6.80;99.90;;;;;;4978111;28;20062;-63
2022/04/14 08:23:03;;;;;;;32.38;18.52;;;6.80;99.90;;;;;;4969059;28;20082;-63
2022/04/14 08:25:34;;;;;;;25.73;15.40;;;6.90;99.90;;;;;;4979248;28;20157;-63
2022/04/14 08:28:02;;;;;;;;;;;6.90;99.90;;;;;;4987573;28;20518;-63
2022/04/14 08:30:30;;;;;;;28.38;15.25;;;6.90;99.90;;;;;;4976069;28;20028;-63
2022/04/14 08:33:03;;;;;;;20.95;16.92;;;6.90;99.90;;;;;;4976116;28;20443;-64
2022/04/14 08:35:31;;;;;;;26.13;14.90;;;6.90;99.90;;;;;;4976674;28;20066;-63
2022/04/14 08:38:02;;;;;;;27.45;15.82;;;6.90;99.90;;;;;;4976013;28;20070;-62
2022/04/14 08:40:36;;;;;;;24.00;14.00;;;6.90;99.90;;;;;;4972952;28;20066;-65
2022/04/14 08:43:05;;;;;;;22.73;15.85;;;6.80;99.90;;;;;;4977415;28;20046;-63
2022/04/14 08:45:34;;;;;;;23.33;13.40;;;7.00;99.90;;;;;;4977682;28;20042;-63
2022/04/14 08:48:03;;;;;;;17.30;13.05;;;7.10;99.90;;;;;;4978254;28;20043;-62
2022/04/14 08:50:32;;;;;;;20.63;12.98;;;7.20;99.90;;;;;;4973112;28;20153;-63
2022/04/14 08:53:03;;;;;;;23.67;13.32;;;7.20;99.90;;;;;;4978215;28;20060;-64
2022/04/14 08:55:31;;;;;;;22.45;13.77;;;7.50;99.90;;;;;;4973420;28;20046;-64
2022/04/14 08:57:59;;;;;;;21.23;12.35;;;7.60;99.90;;;;;;4980336;28;20128;-63
2022/04/14 09:00:27;;;;;;;19.80;15.02;;;7.60;99.90;;;;;;4977048;28;20065;-62
2022/04/14 09:02:57;;;;;;;18.40;12.85;;;7.80;99.90;;;;;;4976991;28;20532;-65
2022/04/14 09:05:25;;;;;;;22.73;13.13;;;7.90;99.90;;;;;;4979739;28;20203;-63
2022/04/14 09:07:52;;;;;;;20.10;12.80;;;7.90;99.90;;;;;;4978814;28;20455;-63
2022/04/14 09:10:20;;;;;;;20.17;13.25;;;7.90;99.90;;;;;;4970526;28;20693;-63
2022/04/14 09:12:48;;;;;;;23.15;13.93;;;8.00;99.90;;;;;;4973699;28;20057;-62
2022/04/14 09:15:16;;;;;;;24.83;12.98;;;8.20;99.90;;;;;;4975453;28;20034;-63
2022/04/14 09:17:44;;;;;;;19.38;12.10;;;8.20;99.90;;;;;;4981604;28;20043;-63
2022/04/14 09:20:40;;;;;;;25.02;13.35;;;8.20;99.90;;;;;;4976811;28;20418;-63
2022/04/14 09:23:20;;;;;;;25.25;12.88;;;8.10;99.90;;;;;;4973398;28;20564;-62
2022/04/14 09:25:52;;;;;;;25.73;13.32;;;8.10;99.90;;;;;;4978352;28;20073;-62
2022/04/14 09:28:21;;;;;;;24.88;11.50;;;8.20;99.90;;;;;;4984256;28;20065;-63
2022/04/14 09:31:02;;;;;;;25.23;13.20;;;8.00;99.90;;;;;;4979214;28;20150;-62
2022/04/14 09:33:31;;;;;;;24.67;12.73;;;7.90;99.90;;;;;;4985580;28;20096;-63
2022/04/14 09:36:17;;;;;;;25.20;12.93;;;7.80;99.90;;;;;;4969105;28;20046;-64
2022/04/14 09:39:01;;;;;;;15.70;12.95;;;7.70;99.90;;;;;;4979794;28;20330;-65
2022/04/14 09:41:47;;;;;;;21.08;13.98;;;7.70;99.90;;;;;;4975896;28;20134;-63
2022/04/14 09:44:14;;;;;;;32.85;13.75;;;7.30;99.90;;;;;;4975758;28;20134;-63
2022/04/14 09:46:46;;;;;;;15.25;10.88;;;7.30;99.90;;;;;;4974406;28;20073;-63
2022/04/14 09:49:17;;;;;;;25.75;13.43;;;7.20;99.90;;;;;;4985092;28;20116;-62
2022/04/14 09:51:50;;;;;;;15.60;11.13;;;7.20;99.90;;;;;;4983269;28;20071;-63
2022/04/14 09:54:19;;;;;;;33.58;14.38;;;7.10;99.90;;;;;;4979960;28;20038;-62
2022/04/14 09:56:51;;;;;;;28.05;12.40;;;7.10;99.90;;;;;;4969488;28;20137;-63
2022/04/14 09:59:27;;;;;;;23.67;11.80;;;7.10;99.90;;;;;;4979497;28;20050;-63
2022/04/14 10:02:09;;;;;;;22.63;13.00;;;7.10;99.90;;;;;;4982011;28;20117;-62
2022/04/14 10:04:39;;;;;;;21.60;14.27;;;7.10;99.90;;;;;;4985862;28;20065;-63
2022/04/14 10:07:12;;;;;;;21.80;10.32;;;7.20;99.90;;;;;;4970424;28;20070;-63
2022/04/14 10:09:45;;;;;;;25.75;12.95;;;7.30;99.90;;;;;;4977460;28;20107;-64
2022/04/14 10:12:24;;;;;;;29.42;13.80;;;7.40;99.90;;;;;;4975316;28;20201;-62
2022/04/14 10:14:58;;;;;;;26.80;11.98;;;7.50;99.90;;;;;;4979759;28;20263;-63
2022/04/14 10:17:27;;;;;;;20.50;10.07;;;7.40;99.90;;;;;;4978699;28;20540;-63
2022/04/14 10:19:54;;;;;;;17.42;10.50;;;7.20;99.90;;;;;;4974589;28;20053;-63
2022/04/14 10:22:21;;;;;;;20.15;12.05;;;7.10;99.90;;;;;;4973709;28;20050;-65
2022/04/14 10:24:52;;;;;;;15.45;11.00;;;7.00;99.90;;;;;;4977483;28;20243;-63
2022/04/14 10:27:21;;;;;;;21.67;12.18;;;7.00;99.90;;;;;;4970415;28;20046;-62
2022/04/14 10:29:49;;;;;;;20.08;12.02;;;7.10;99.90;;;;;;4982744;28;20058;-63
2022/04/14 10:32:17;;;;;;;26.75;11.50;;;7.00;99.90;;;;;;4977456;28;20554;-63
2022/04/14 10:34:46;;;;;;;24.10;13.13;;;6.90;99.90;;;;;;4974841;28;20365;-64
2022/04/14 10:37:45;;;;;;;19.17;11.95;;;6.90;99.90;;;;;;4973880;28;20043;-63
2022/04/14 10:40:14;;;;;;;20.60;11.00;;;6.90;99.90;;;;;;4969397;28;20129;-63
2022/04/14 10:42:48;;;;;;;18.77;12.85;;;6.90;99.90;;;;;;4979814;28;20054;-62
2022/04/14 10:45:22;;;;;;;15.40;13.05;;;6.90;99.90;;;;;;4983713;28;20444;-63
2022/04/14 10:47:57;;;;;;;19.45;13.35;;;7.00;99.90;;;;;;4984223;28;20116;-63
2022/04/14 10:50:32;;;;;;;20.42;11.32;;;7.00;99.90;;;;;;4981329;28;20574;-63
2022/04/14 10:53:12;;;;;;;19.48;11.27;;;7.00;99.90;;;;;;4980618;28;20078;-62
2022/04/14 10:55:47;;;;;;;17.88;9.68;;;7.10;99.90;;;;;;4974569;28;20503;-64
2022/04/14 10:58:29;;;;;;;23.60;11.85;;;7.10;99.90;;;;;;4983629;28;20048;-62
2022/04/14 11:00:56;;;;;;;15.27;9.32;;;7.10;99.90;;;;;;4971484;28;20515;-63
2022/04/14 11:03:48;;;;;;;21.42;10.43;;;7.00;99.90;;;;;;4974148;28;20043;-63
2022/04/14 11:06:40;;;;;;;16.48;10.68;;;7.20;99.90;;;;;;4974811;28;20038;-64
2022/04/14 11:09:08;;;;;;;22.33;10.07;;;7.10;99.90;;;;;;4975574;28;20782;-63
2022/04/14 11:12:00;;;;;;;22.95;9.88;;;7.00;99.90;;;;;;4970815;28;20054;-63
2022/04/14 11:14:27;;;;;;;18.77;11.68;;;6.90;99.90;;;;;;4971744;28;20038;-63
2022/04/14 11:16:54;;;;;;;18.33;9.52;;;6.90;99.90;;;;;;4977493;28;20133;-63
2022/04/14 11:19:27;;;;;;;24.42;11.15;;;6.90;99.90;;;;;;4979244;28;20640;-63
2022/04/14 11:24:53;;;;;;;20.65;11.93;;;7.10;99.90;;;;;;4981818;28;20038;-63
2022/04/14 11:27:26;;;;;;;19.52;10.77;;;7.10;99.90;;;;;;4972135;28;20517;-63
2022/04/14 11:30:03;;;;;;;23.30;9.32;;;7.10;99.90;;;;;;4978473;28;20461;-63
2022/04/14 11:32:39;;;;;;;15.55;10.18;;;7.30;99.90;;;;;;4975647;28;20452;-63
2022/04/14 11:35:30;;;;;;;18.08;10.65;;;7.30;99.90;;;;;;4964660;28;20198;-63
2022/04/14 11:37:57;;;;;;;17.83;11.35;;;7.60;99.90;;;;;;4972997;28;20045;-63
2022/04/14 11:40:26;;;;;;;15.68;10.98;;;7.40;99.90;;;;;;4968503;28;20046;-62
2022/04/14 11:42:57;;;;;;;17.65;10.15;;;7.40;99.90;;;;;;4961594;28;20046;-63
2022/04/14 11:45:29;;;;;;;16.70;9.32;;;7.30;99.90;;;;;;4977274;28;20042;-62
2022/04/14 11:48:03;;;;;;;17.13;9.10;;;7.30;99.90;;;;;;4977107;28;20054;-65
2022/04/14 11:50:34;;;;;;;20.83;10.73;;;7.30;99.90;;;;;;4977973;28;20046;-63
2022/04/14 11:53:03;;;;;;;22.15;9.82;;;7.40;99.90;;;;;;4976674;28;20539;-63
2022/04/14 11:55:38;;;;;;;16.17;9.02;;;7.40;99.90;;;;;;4977961;28;20045;-63
2022/04/14 11:58:06;;;;;;;18.90;8.40;;;7.50;99.90;;;;;;4988681;28;20470;-64
2022/04/14 12:00:47;;;;;;;20.73;9.75;;;7.60;99.90;;;;;;4984324;28;20050;-65
2022/04/14 12:03:16;;;;;;;13.70;8.48;;;7.40;99.90;;;;;;4978133;28;20070;-63
2022/04/14 12:05:51;;;;;;;19.13;9.38;;;7.30;99.90;;;;;;4976739;28;20491;-64
2022/04/14 12:08:18;;;;;;;21.88;12.05;;;7.30;99.90;;;;;;4973233;28;20047;-63
2022/04/14 12:10:45;;;;;;;13.32;8.50;;;7.50;99.90;;;;;;4976460;28;20070;-63
2022/04/14 12:13:12;;;;;;;13.27;9.25;;;7.70;99.90;;;;;;4982822;28;20128;-64
2022/04/14 12:15:39;;;;;;;13.27;8.40;;;7.80;99.90;;;;;;4983778;28;20506;-63
2022/04/14 12:18:14;;;;;;;17.05;9.43;;;7.70;99.90;;;;;;4984044;28;20082;-62
2022/04/14 12:20:44;;;;;;;21.10;9.00;;;7.80;99.90;;;;;;4978449;28;20050;-63
2022/04/14 12:23:11;;;;;;;13.27;9.37;;;7.70;99.90;;;;;;4984238;28;20043;-63
2022/04/14 12:25:39;;;;;;;29.58;10.05;;;7.80;99.90;;;;;;4983536;28;20061;-64
2022/04/14 12:28:06;;;;;;;22.90;8.60;;;7.90;99.90;;;;;;4976366;28;20173;-65
2022/04/14 12:30:34;;;;;;;11.00;7.93;;;8.00;99.90;;;;;;4975646;28;20042;-63
2022/04/14 12:33:06;;;;;;;19.30;9.30;;;7.70;99.90;;;;;;4968264;28;20066;-63
2022/04/14 12:35:40;;;;;;;18.05;9.32;;;7.50;99.90;;;;;;4975749;28;20137;-63
2022/04/14 12:38:14;;;;;;;17.77;8.93;;;7.50;99.90;;;;;;4979455;28;20035;-63
2022/04/14 12:40:57;;;;;;;17.27;8.57;;;7.40;99.90;;;;;;4975110;28;20292;-65
2022/04/14 12:43:28;;;;;;;13.38;9.82;;;7.40;99.90;;;;;;4975717;28;20113;-62
2022/04/14 12:45:55;;;;;;;15.93;8.45;;;7.40;99.90;;;;;;4972227;28;20082;-63
2022/04/14 12:48:26;;;;;;;17.50;10.02;;;7.50;99.90;;;;;;4972798;28;20383;-64
2022/04/14 12:50:59;;;;;;;17.45;10.27;;;7.50;99.90;;;;;;4977511;28;20046;-62
2022/04/14 12:53:26;;;;;;;23.63;9.05;;;7.50;99.90;;;;;;4974432;28;20090;-64
2022/04/14 12:56:10;;;;;;;15.63;8.38;;;7.20;99.90;;;;;;4978384;28;20125;-63
2022/04/14 12:58:37;;;;;;;17.85;10.98;;;7.00;99.90;;;;;;4973465;28;20058;-63
2022/04/14 13:01:09;;;;;;;22.33;11.95;;;7.00;99.90;;;;;;4968994;28;20405;-63